createdAt,value
2023-03-03T00:03:44.225Z,41.8
2023-03-03T00:09:36.914Z,41.7
2023-03-03T00:15:29.964Z,41.7
2023-03-03T00:21:23.063Z,41.6
2023-03-03T00:27:16.075Z,41.6
2023-03-03T00:32:37.513Z,41.6
2023-03-03T00:38:14.464Z,41.5
2023-03-03T00:44:07.656Z,41.5
2023-03-03T00:50:00.888Z,41.4
2023-03-03T00:55:54.506Z,41.4
2023-03-03T01:01:17.105Z,41.4
2023-03-03T01:07:09.862Z,41.4
2023-03-03T01:12:47.463Z,41.3
2023-03-03T01:18:25.870Z,41.3
2023-03-03T01:24:03.037Z,41.3
2023-03-03T01:29:24.883Z,41.3
2023-03-03T01:34:47.176Z,41.2
2023-03-03T01:40:23.688Z,41.2
2023-03-03T01:46:00.717Z,41.1
2023-03-03T01:51:22.607Z,41.1
2023-03-03T01:56:43.429Z,41.1
2023-03-03T02:02:04.946Z,41.1
2023-03-03T02:07:27.110Z,41
2023-03-03T02:12:49.488Z,41
2023-03-03T02:18:10.787Z,40.9
2023-03-03T02:23:17.179Z,40.9
2023-03-03T02:28:22.376Z,40.9
2023-03-03T02:33:44.108Z,40.3
2023-03-03T02:39:21.780Z,41.4
2023-03-03T02:44:58.223Z,43
2023-03-03T02:50:51.165Z,44.7
2023-03-03T02:56:28.700Z,46.3
2023-03-03T03:02:06.009Z,47.9
2023-03-03T03:07:42.552Z,49.6
2023-03-03T03:13:04.630Z,51.1
2023-03-03T03:18:41.390Z,52.8
2023-03-03T03:24:18.739Z,54.4
2023-03-03T03:29:56.806Z,56
2023-03-03T03:35:49.247Z,57.7
2023-03-03T03:47:03.077Z,58.6
2023-03-03T04:04:10.810Z,58.5
2023-03-03T04:10:03.293Z,58.5
2023-03-03T04:15:40.213Z,58.4
2023-03-03T04:21:37.191Z,58.4
2023-03-03T04:27:30.130Z,58.3
2023-03-03T04:33:10.367Z,58.3
2023-03-03T04:39:00.202Z,58.3
2023-03-03T04:44:55.319Z,58.3
2023-03-03T04:50:50.528Z,58.2
2023-03-03T04:56:43.261Z,58.1
2023-03-03T05:02:20.653Z,58.1
2023-03-03T05:07:58.784Z,58
2023-03-03T05:13:52.616Z,57.9
2023-03-03T05:19:45.180Z,57.9
2023-03-03T05:25:38.281Z,57.9
2023-03-03T05:31:31.605Z,57.8
2023-03-03T05:43:03.024Z,57.7
2023-03-03T05:48:56.793Z,57.7
2023-03-03T05:54:48.782Z,57.6
2023-03-03T06:00:41.719Z,57.6
2023-03-03T06:06:35.931Z,57.5
2023-03-03T06:12:13.763Z,57.4
2023-03-03T06:18:08.515Z,57.4
2023-03-03T06:24:02.462Z,57.4
2023-03-03T06:29:55.485Z,57.3
2023-03-03T06:35:33.193Z,57.3
2023-03-03T06:41:27.187Z,57.3
2023-03-03T06:47:20.255Z,57.2
2023-03-03T06:52:57.420Z,57.1
2023-03-03T06:58:50.445Z,57.1
2023-03-03T07:04:29.150Z,57.1
2023-03-03T07:10:21.548Z,57
2023-03-03T07:16:17.742Z,56.9
2023-03-03T07:22:11.360Z,56.9
2023-03-03T07:28:04.344Z,56.8
2023-03-03T07:33:42.680Z,56.8
2023-03-03T07:39:39.110Z,56.8
2023-03-03T07:45:31.936Z,56.7
2023-03-03T07:51:25.947Z,56.6
2023-03-03T07:57:18.899Z,56.6
2023-03-03T08:03:11.239Z,56.6
2023-03-03T08:08:50.821Z,56.6
2023-03-03T08:14:44.010Z,56.5
2023-03-03T08:20:36.878Z,56.4
2023-03-03T08:26:30.132Z,56.4
2023-03-03T08:32:47.800Z,56.3
2023-03-03T08:38:42.054Z,56.3
2023-03-03T08:44:35.941Z,56.3
2023-03-03T08:50:29.429Z,56.2
2023-03-03T08:56:22.822Z,56.1
2023-03-03T09:02:30.950Z,56.1
2023-03-03T09:08:24.230Z,56.1
2023-03-03T09:14:16.678Z,56
2023-03-03T09:20:10.674Z,55.9
2023-03-03T09:26:03.318Z,55.9
2023-03-03T09:31:57.256Z,55.9
2023-03-03T09:37:50.611Z,55.8
2023-03-03T09:43:42.969Z,55.8
2023-03-03T09:49:26.120Z,55.7
2023-03-03T09:55:24.944Z,55.7
2023-03-03T10:01:34.123Z,55.6
2023-03-03T10:07:31.729Z,55.6
2023-03-03T10:13:26.026Z,55.5
2023-03-03T10:19:22.787Z,55.5
2023-03-03T10:25:24.954Z,55.4
2023-03-03T10:32:01.923Z,55.4
2023-03-03T10:38:10.214Z,55.3
2023-03-03T10:44:19.557Z,55.3
2023-03-03T10:50:14.461Z,55.3
2023-03-03T10:56:07.301Z,55.2
2023-03-03T11:02:14.280Z,55.1
2023-03-03T11:08:12.100Z,55.1
2023-03-03T11:13:50.484Z,55.1
2023-03-03T11:19:44.470Z,55
2023-03-03T11:25:37.896Z,55
2023-03-03T11:31:32.021Z,54.9
2023-03-03T11:37:25.741Z,54.9
2023-03-03T11:43:03.823Z,54.9
2023-03-03T11:49:12.817Z,54.8
2023-03-03T11:55:06.264Z,54.8
2023-03-03T12:01:03.732Z,54.7
2023-03-03T12:06:58.643Z,54.6
2023-03-03T12:12:58.770Z,54.6
2023-03-03T12:18:36.701Z,54.6
2023-03-03T12:24:45.449Z,54.5
2023-03-03T12:30:38.923Z,54.4
2023-03-03T12:36:33.796Z,54.4
2023-03-03T12:42:40.406Z,54.4
2023-03-03T12:48:33.961Z,54.3
2023-03-03T12:54:38.982Z,54.3
2023-03-03T13:00:32.264Z,54.3
2023-03-03T13:06:30.544Z,54.2
2023-03-03T13:12:27.058Z,54.1
2023-03-03T13:18:42.979Z,54.1
2023-03-03T13:24:36.027Z,54.1
2023-03-03T13:30:29.893Z,54
2023-03-03T13:36:09.233Z,53.9
2023-03-03T13:42:02.365Z,53.9
2023-03-03T13:47:55.350Z,53.9
2023-03-03T13:53:47.903Z,53.8
2023-03-03T13:59:41.223Z,53.8
2023-03-03T14:05:35.690Z,53.8
2023-03-03T14:11:28.664Z,53.7
2023-03-03T14:17:22.951Z,53.7
2023-03-03T14:23:16.337Z,53.6
2023-03-03T14:29:09.122Z,53.6
2023-03-03T14:35:18.727Z,53.5
2023-03-03T14:41:12.392Z,53.5
2023-03-03T14:47:09.083Z,53.4
2023-03-03T14:53:03.904Z,53.4
2023-03-03T14:58:57.943Z,53.4
2023-03-03T15:04:38.093Z,53.3
2023-03-03T15:10:17.706Z,53.3
2023-03-03T15:15:55.442Z,53.3
2023-03-03T15:21:32.667Z,53.2
2023-03-03T15:27:24.112Z,53.1
2023-03-03T15:33:05.071Z,53.1
2023-03-03T15:38:41.731Z,53.1
2023-03-03T15:44:34.919Z,53
2023-03-03T15:49:58.290Z,53
2023-03-03T15:56:00.281Z,52.9
2023-03-03T16:01:38.077Z,52.9
2023-03-03T16:07:30.854Z,52.8
2023-03-03T16:13:24.758Z,52.8
2023-03-03T16:19:18.351Z,52.8
2023-03-03T16:25:12.749Z,52.7
2023-03-03T16:30:51.673Z,52.7
2023-03-03T16:36:45.975Z,52.6
2023-03-03T16:42:39.266Z,52.6
2023-03-03T16:48:32.116Z,52.6
2023-03-03T16:54:08.139Z,52.5
2023-03-03T16:59:45.567Z,52.4
2023-03-03T17:05:38.373Z,52.4
2023-03-03T17:17:19.107Z,52.3
2023-03-03T17:23:12.219Z,52.3
2023-03-03T17:29:05.936Z,52.3
2023-03-03T17:34:59.786Z,52.2
2023-03-03T17:40:38.196Z,52.2
2023-03-03T17:46:33.318Z,52.1
2023-03-03T17:52:25.997Z,52.1
2023-03-03T17:58:19.166Z,52.1
2023-03-03T18:04:12.094Z,52
2023-03-03T18:16:10.657Z,51.9
2023-03-03T18:21:51.462Z,51.9
2023-03-03T18:27:46.005Z,51.8
2023-03-03T18:33:38.396Z,51.8
2023-03-03T18:39:31.369Z,51.8
2023-03-03T18:45:23.980Z,51.7
2023-03-03T18:51:16.850Z,51.6
2023-03-03T18:57:09.250Z,51.6
2023-03-03T19:02:30.764Z,51.6
2023-03-03T19:08:24.615Z,51.5
2023-03-03T19:14:01.908Z,51.5
2023-03-03T19:19:38.734Z,51.4
2023-03-03T19:25:34.704Z,51.4
2023-03-03T19:31:27.544Z,51.4
2023-03-03T19:37:21.276Z,51.3
2023-03-03T19:43:17.728Z,51.3
2023-03-03T19:49:11.447Z,51.3
2023-03-03T19:55:03.244Z,51.2
2023-03-03T20:00:56.505Z,51.2
2023-03-03T20:06:50.256Z,51.1
2023-03-03T20:12:43.133Z,51.1
2023-03-03T20:18:37.579Z,51.1
2023-03-03T20:24:29.157Z,51
2023-03-03T20:30:22.884Z,50.9
2023-03-03T20:36:15.713Z,50.9
2023-03-03T20:41:52.984Z,50.9
2023-03-03T20:47:46.304Z,50.8
2023-03-03T20:53:39.594Z,50.8
2023-03-03T20:59:31.200Z,50.8
2023-03-03T21:05:23.369Z,50.8
2023-03-03T21:10:45.059Z,50.7
2023-03-03T21:16:39.510Z,50.6
2023-03-03T21:22:35.291Z,50.6
2023-03-03T21:28:13.463Z,50.6
2023-03-03T21:34:09.505Z,50.5
2023-03-03T21:40:02.995Z,50.4
2023-03-03T21:45:56.071Z,50.4
2023-03-03T21:51:33.844Z,50.4
2023-03-03T21:57:11.290Z,50.4
2023-03-03T22:03:05.086Z,50.3
2023-03-03T22:08:59.332Z,50.3
2023-03-03T22:14:51.776Z,50.3
2023-03-03T22:20:44.599Z,50.2
2023-03-03T22:26:37.568Z,50.1
2023-03-03T22:32:31.742Z,50.1
2023-03-03T22:38:24.398Z,50.1
2023-03-03T22:44:17.786Z,50.1
2023-03-03T22:50:09.193Z,50
2023-03-03T22:56:01.407Z,49.9
2023-03-03T23:01:54.445Z,49.9
2023-03-03T23:07:47.762Z,49.9
2023-03-03T23:13:25.520Z,49.8
2023-03-03T23:19:17.618Z,49.8
2023-03-03T23:24:54.854Z,49.8
2023-03-03T23:30:46.621Z,49.8
2023-03-03T23:36:23.666Z,49.7
2023-03-03T23:42:15.785Z,49.6
2023-03-03T23:48:08.320Z,49.6
2023-03-03T23:54:01.641Z,49.6
2023-03-03T23:59:54.552Z,49.6
